sensor_id;sensor_type;location;lat;lon;timestamp;temperature;humidity
25877;DHT22;13692;47.480;19.216;2023-11-19T00:01:08;2.10;99.90
25877;DHT22;13692;47.480;19.216;2023-11-19T00:03:35;2.10;99.90
25877;DHT22;13692;47.480;19.216;2023-11-19T00:06:02;2.10;99.90
25877;DHT22;13692;47.480;19.216;2023-11-19T00:08:31;2.10;99.90
25877;DHT22;13692;47.480;19.216;2023-11-19T00:10:58;2.00;99.90
25877;DHT22;13692;47.480;19.216;2023-11-19T00:13:25;2.10;99.90
25877;DHT22;13692;47.480;19.216;2023-11-19T00:15:52;2.00;99.90
25877;DHT22;13692;47.480;19.216;2023-11-19T00:18:19;2.00;99.90
25877;DHT22;13692;47.480;19.216;2023-11-19T00:20:47;2.00;99.90
25877;DHT22;13692;47.480;19.216;2023-11-19T00:23:14;2.00;99.90
25877;DHT22;13692;47.480;19.216;2023-11-19T00:25:41;1.90;99.90
25877;DHT22;13692;47.480;19.216;2023-11-19T00:28:08;1.80;99.90
25877;DHT22;13692;47.480;19.216;2023-11-19T00:30:35;1.80;99.90
25877;DHT22;13692;47.480;19.216;2023-11-19T00:33:02;1.90;99.90
25877;DHT22;13692;47.480;19.216;2023-11-19T00:35:29;1.90;99.90
25877;DHT22;13692;47.480;19.216;2023-11-19T00:37:58;1.90;99.90
25877;DHT22;13692;47.480;19.216;2023-11-19T00:40:25;1.90;99.90
25877;DHT22;13692;47.480;19.216;2023-11-19T00:42:52;1.90;99.90
25877;DHT22;13692;47.480;19.216;2023-11-19T00:45:19;1.90;99.90
25877;DHT22;13692;47.480;19.216;2023-11-19T00:47:46;1.80;99.90
25877;DHT22;13692;47.480;19.216;2023-11-19T00:50:13;1.80;99.90
25877;DHT22;13692;47.480;19.216;2023-11-19T00:52:40;1.80;99.90
25877;DHT22;13692;47.480;19.216;2023-11-19T00:55:07;1.80;99.90
25877;DHT22;13692;47.480;19.216;2023-11-19T00:57:35;1.70;99.90
25877;DHT22;13692;47.480;19.216;2023-11-19T01:00:03;1.70;99.90
25877;DHT22;13692;47.480;19.216;2023-11-19T01:02:36;1.70;99.90
25877;DHT22;13692;47.480;19.216;2023-11-19T01:05:03;1.70;99.90
25877;DHT22;13692;47.480;19.216;2023-11-19T01:07:30;1.70;99.90
25877;DHT22;13692;47.480;19.216;2023-11-19T01:09:57;1.70;99.90
25877;DHT22;13692;47.480;19.216;2023-11-19T01:12:24;1.60;99.90
25877;DHT22;13692;47.480;19.216;2023-11-19T01:14:52;1.50;99.90
25877;DHT22;13692;47.480;19.216;2023-11-19T01:17:19;1.50;99.90
25877;DHT22;13692;47.480;19.216;2023-11-19T01:19:46;1.50;99.90
25877;DHT22;13692;47.480;19.216;2023-11-19T01:22:12;1.60;99.90
25877;DHT22;13692;47.480;19.216;2023-11-19T01:24:39;1.70;99.90
25877;DHT22;13692;47.480;19.216;2023-11-19T01:27:06;1.70;99.90
25877;DHT22;13692;47.480;19.216;2023-11-19T01:29:33;1.70;99.90
25877;DHT22;13692;47.480;19.216;2023-11-19T01:32:00;1.70;99.90
25877;DHT22;13692;47.480;19.216;2023-11-19T01:34:27;1.70;99.90
25877;DHT22;13692;47.480;19.216;2023-11-19T01:36:55;1.70;99.90
25877;DHT22;13692;47.480;19.216;2023-11-19T01:39:22;1.70;99.90
25877;DHT22;13692;47.480;19.216;2023-11-19T01:41:49;1.70;99.90
25877;DHT22;13692;47.480;19.216;2023-11-19T01:44:16;1.60;99.90
25877;DHT22;13692;47.480;19.216;2023-11-19T01:46:44;1.60;99.90
25877;DHT22;13692;47.480;19.216;2023-11-19T01:49:17;1.60;99.90
25877;DHT22;13692;47.480;19.216;2023-11-19T01:51:46;1.60;99.90
25877;DHT22;13692;47.480;19.216;2023-11-19T01:54:14;1.60;99.90
25877;DHT22;13692;47.480;19.216;2023-11-19T01:56:42;1.60;99.90
25877;DHT22;13692;47.480;19.216;2023-11-19T01:59:11;1.70;99.90
25877;DHT22;13692;47.480;19.216;2023-11-19T02:01:41;1.70;99.90
25877;DHT22;13692;47.480;19.216;2023-11-19T02:04:09;1.60;99.90
25877;DHT22;13692;47.480;19.216;2023-11-19T02:06:40;1.60;99.90
25877;DHT22;13692;47.480;19.216;2023-11-19T02:09:07;1.60;99.90
25877;DHT22;13692;47.480;19.216;2023-11-19T02:11:35;1.50;99.90
25877;DHT22;13692;47.480;19.216;2023-11-19T02:14:02;1.50;99.90
25877;DHT22;13692;47.480;19.216;2023-11-19T02:16:31;1.50;99.90
25877;DHT22;13692;47.480;19.216;2023-11-19T02:18:58;1.50;99.90
25877;DHT22;13692;47.480;19.216;2023-11-19T02:21:25;1.60;99.90
25877;DHT22;13692;47.480;19.216;2023-11-19T02:23:52;1.50;99.90
25877;DHT22;13692;47.480;19.216;2023-11-19T02:26:31;1.50;99.90
25877;DHT22;13692;47.480;19.216;2023-11-19T02:28:59;1.50;99.90
25877;DHT22;13692;47.480;19.216;2023-11-19T02:31:26;1.50;99.90
25877;DHT22;13692;47.480;19.216;2023-11-19T02:33:54;1.50;99.90
25877;DHT22;13692;47.480;19.216;2023-11-19T02:36:21;1.50;99.90
25877;DHT22;13692;47.480;19.216;2023-11-19T02:38:48;1.50;99.90
25877;DHT22;13692;47.480;19.216;2023-11-19T02:41:16;1.40;99.90
25877;DHT22;13692;47.480;19.216;2023-11-19T02:43:43;1.50;99.90
25877;DHT22;13692;47.480;19.216;2023-11-19T02:46:10;1.40;99.90
25877;DHT22;13692;47.480;19.216;2023-11-19T02:48:40;1.40;99.90
25877;DHT22;13692;47.480;19.216;2023-11-19T02:51:08;1.40;99.90
25877;DHT22;13692;47.480;19.216;2023-11-19T02:53:37;1.50;99.90
25877;DHT22;13692;47.480;19.216;2023-11-19T02:56:04;1.50;99.90
25877;DHT22;13692;47.480;19.216;2023-11-19T02:58:46;1.50;99.90
25877;DHT22;13692;47.480;19.216;2023-11-19T03:01:14;1.40;99.90
25877;DHT22;13692;47.480;19.216;2023-11-19T03:03:51;1.50;99.90
25877;DHT22;13692;47.480;19.216;2023-11-19T03:06:25;1.50;99.90
25877;DHT22;13692;47.480;19.216;2023-11-19T03:08:52;1.60;99.90
25877;DHT22;13692;47.480;19.216;2023-11-19T03:11:19;1.50;99.90
25877;DHT22;13692;47.480;19.216;2023-11-19T03:13:46;1.50;99.90
25877;DHT22;13692;47.480;19.216;2023-11-19T03:16:13;1.50;99.90
25877;DHT22;13692;47.480;19.216;2023-11-19T03:18:40;1.60;99.90
25877;DHT22;13692;47.480;19.216;2023-11-19T03:21:07;1.50;99.90
25877;DHT22;13692;47.480;19.216;2023-11-19T03:23:35;1.50;99.90
25877;DHT22;13692;47.480;19.216;2023-11-19T03:26:03;1.50;99.90
25877;DHT22;13692;47.480;19.216;2023-11-19T03:28:32;1.60;99.90
25877;DHT22;13692;47.480;19.216;2023-11-19T03:30:59;1.60;99.90
25877;DHT22;13692;47.480;19.216;2023-11-19T03:33:26;1.50;99.90
25877;DHT22;13692;47.480;19.216;2023-11-19T03:35:56;1.50;99.90
25877;DHT22;13692;47.480;19.216;2023-11-19T03:38:24;1.50;99.90
25877;DHT22;13692;47.480;19.216;2023-11-19T03:40:53;1.50;99.90
25877;DHT22;13692;47.480;19.216;2023-11-19T03:43:20;1.50;99.90
25877;DHT22;13692;47.480;19.216;2023-11-19T03:45:47;1.50;99.90
25877;DHT22;13692;47.480;19.216;2023-11-19T03:48:15;1.50;99.90
25877;DHT22;13692;47.480;19.216;2023-11-19T03:50:45;1.40;99.90
25877;DHT22;13692;47.480;19.216;2023-11-19T03:53:12;1.40;99.90
25877;DHT22;13692;47.480;19.216;2023-11-19T03:55:40;1.40;99.90
25877;DHT22;13692;47.480;19.216;2023-11-19T03:58:07;1.40;99.90
25877;DHT22;13692;47.480;19.216;2023-11-19T04:00:34;1.40;99.90
25877;DHT22;13692;47.480;19.216;2023-11-19T04:03:01;1.40;99.90
25877;DHT22;13692;47.480;19.216;2023-11-19T04:05:29;1.40;99.90
25877;DHT22;13692;47.480;19.216;2023-11-19T04:07:56;1.40;99.90
25877;DHT22;13692;47.480;19.216;2023-11-19T04:10:23;1.40;99.90
25877;DHT22;13692;47.480;19.216;2023-11-19T04:12:50;1.40;99.90
25877;DHT22;13692;47.480;19.216;2023-11-19T04:15:17;1.40;99.90
25877;DHT22;13692;47.480;19.216;2023-11-19T04:17:44;1.40;99.90
25877;DHT22;13692;47.480;19.216;2023-11-19T04:20:11;1.40;99.90
25877;DHT22;13692;47.480;19.216;2023-11-19T04:22:40;1.40;99.90
25877;DHT22;13692;47.480;19.216;2023-11-19T04:25:07;1.40;99.90
25877;DHT22;13692;47.480;19.216;2023-11-19T04:27:35;1.40;99.90
25877;DHT22;13692;47.480;19.216;2023-11-19T04:30:02;1.40;99.90
25877;DHT22;13692;47.480;19.216;2023-11-19T04:32:30;1.40;99.90
25877;DHT22;13692;47.480;19.216;2023-11-19T04:34:57;1.30;99.90
25877;DHT22;13692;47.480;19.216;2023-11-19T04:37:24;1.30;99.90
25877;DHT22;13692;47.480;19.216;2023-11-19T04:39:51;1.30;99.90
25877;DHT22;13692;47.480;19.216;2023-11-19T04:42:18;1.30;99.90
25877;DHT22;13692;47.480;19.216;2023-11-19T04:44:46;1.30;99.90
25877;DHT22;13692;47.480;19.216;2023-11-19T04:47:13;1.30;99.90
25877;DHT22;13692;47.480;19.216;2023-11-19T04:49:41;1.40;99.90
25877;DHT22;13692;47.480;19.216;2023-11-19T04:52:11;1.30;99.90
25877;DHT22;13692;47.480;19.216;2023-11-19T04:54:44;1.40;99.90
25877;DHT22;13692;47.480;19.216;2023-11-19T04:57:11;1.30;99.90
25877;DHT22;13692;47.480;19.216;2023-11-19T04:59:38;1.30;99.90
25877;DHT22;13692;47.480;19.216;2023-11-19T05:02:05;1.30;99.90
25877;DHT22;13692;47.480;19.216;2023-11-19T05:04:32;1.40;99.90
25877;DHT22;13692;47.480;19.216;2023-11-19T05:06:59;1.30;99.90
25877;DHT22;13692;47.480;19.216;2023-11-19T05:09:27;1.30;99.90
25877;DHT22;13692;47.480;19.216;2023-11-19T05:11:54;1.30;99.90
25877;DHT22;13692;47.480;19.216;2023-11-19T05:14:21;1.30;99.90
25877;DHT22;13692;47.480;19.216;2023-11-19T05:16:48;1.30;99.90
25877;DHT22;13692;47.480;19.216;2023-11-19T05:19:16;1.30;99.90
25877;DHT22;13692;47.480;19.216;2023-11-19T05:21:43;1.20;99.90
25877;DHT22;13692;47.480;19.216;2023-11-19T05:24:10;1.30;99.90
25877;DHT22;13692;47.480;19.216;2023-11-19T05:26:41;1.30;99.90
25877;DHT22;13692;47.480;19.216;2023-11-19T05:29:08;1.40;99.90
25877;DHT22;13692;47.480;19.216;2023-11-19T05:31:35;1.40;99.90
25877;DHT22;13692;47.480;19.216;2023-11-19T05:34:03;1.40;99.90
25877;DHT22;13692;47.480;19.216;2023-11-19T05:36:31;1.40;99.90
25877;DHT22;13692;47.480;19.216;2023-11-19T05:38:58;1.40;99.90
25877;DHT22;13692;47.480;19.216;2023-11-19T05:41:25;1.40;99.90
25877;DHT22;13692;47.480;19.216;2023-11-19T05:43:52;1.50;99.90
25877;DHT22;13692;47.480;19.216;2023-11-19T05:46:19;1.50;99.90
25877;DHT22;13692;47.480;19.216;2023-11-19T05:48:47;1.50;99.90
25877;DHT22;13692;47.480;19.216;2023-11-19T05:51:14;1.50;99.90
25877;DHT22;13692;47.480;19.216;2023-11-19T05:53:42;1.50;99.90
25877;DHT22;13692;47.480;19.216;2023-11-19T05:56:09;1.60;99.90
25877;DHT22;13692;47.480;19.216;2023-11-19T05:58:37;1.50;99.90
25877;DHT22;13692;47.480;19.216;2023-11-19T06:01:06;1.50;99.90
25877;DHT22;13692;47.480;19.216;2023-11-19T06:03:35;1.50;99.90
25877;DHT22;13692;47.480;19.216;2023-11-19T06:06:04;1.50;99.90
25877;DHT22;13692;47.480;19.216;2023-11-19T06:08:32;1.60;99.90
25877;DHT22;13692;47.480;19.216;2023-11-19T06:10:59;1.70;99.90
25877;DHT22;13692;47.480;19.216;2023-11-19T06:13:28;1.60;99.90
25877;DHT22;13692;47.480;19.216;2023-11-19T06:15:58;1.70;99.90
25877;DHT22;13692;47.480;19.216;2023-11-19T06:18:25;1.70;99.90
25877;DHT22;13692;47.480;19.216;2023-11-19T06:20:52;1.80;99.90
25877;DHT22;13692;47.480;19.216;2023-11-19T06:23:19;1.80;99.90
25877;DHT22;13692;47.480;19.216;2023-11-19T06:25:46;1.80;99.90
25877;DHT22;13692;47.480;19.216;2023-11-19T06:28:13;1.80;99.90
25877;DHT22;13692;47.480;19.216;2023-11-19T06:30:40;1.80;99.90
25877;DHT22;13692;47.480;19.216;2023-11-19T06:33:08;1.70;99.90
25877;DHT22;13692;47.480;19.216;2023-11-19T06:35:35;1.70;99.90
25877;DHT22;13692;47.480;19.216;2023-11-19T06:38:05;1.70;99.90
25877;DHT22;13692;47.480;19.216;2023-11-19T06:40:35;1.70;99.90
25877;DHT22;13692;47.480;19.216;2023-11-19T06:43:03;1.70;99.90
25877;DHT22;13692;47.480;19.216;2023-11-19T06:45:30;1.80;99.90
25877;DHT22;13692;47.480;19.216;2023-11-19T06:47:58;1.70;99.90
25877;DHT22;13692;47.480;19.216;2023-11-19T06:50:27;1.70;99.90
25877;DHT22;13692;47.480;19.216;2023-11-19T06:52:54;1.80;99.90
25877;DHT22;13692;47.480;19.216;2023-11-19T06:55:21;1.90;99.90
25877;DHT22;13692;47.480;19.216;2023-11-19T06:57:48;2.00;99.90
25877;DHT22;13692;47.480;19.216;2023-11-19T07:00:15;2.10;99.90
25877;DHT22;13692;47.480;19.216;2023-11-19T07:02:43;2.10;99.90
25877;DHT22;13692;47.480;19.216;2023-11-19T07:05:11;2.20;99.90
25877;DHT22;13692;47.480;19.216;2023-11-19T07:07:40;2.30;99.90
25877;DHT22;13692;47.480;19.216;2023-11-19T07:10:07;2.40;99.90
25877;DHT22;13692;47.480;19.216;2023-11-19T07:12:36;2.50;99.90
25877;DHT22;13692;47.480;19.216;2023-11-19T07:15:04;2.50;99.90
25877;DHT22;13692;47.480;19.216;2023-11-19T07:17:31;2.60;99.90
25877;DHT22;13692;47.480;19.216;2023-11-19T07:19:58;2.70;99.90
25877;DHT22;13692;47.480;19.216;2023-11-19T07:22:26;2.90;99.90
25877;DHT22;13692;47.480;19.216;2023-11-19T07:24:56;3.00;99.90
25877;DHT22;13692;47.480;19.216;2023-11-19T07:27:23;3.10;99.90
25877;DHT22;13692;47.480;19.216;2023-11-19T07:29:51;3.10;99.90
25877;DHT22;13692;47.480;19.216;2023-11-19T07:32:18;3.10;99.90
25877;DHT22;13692;47.480;19.216;2023-11-19T07:34:45;3.20;99.90
25877;DHT22;13692;47.480;19.216;2023-11-19T07:37:12;3.20;99.90
25877;DHT22;13692;47.480;19.216;2023-11-19T07:39:39;3.20;99.90
25877;DHT22;13692;47.480;19.216;2023-11-19T07:42:08;3.30;99.90
25877;DHT22;13692;47.480;19.216;2023-11-19T07:44:36;3.40;99.90
25877;DHT22;13692;47.480;19.216;2023-11-19T07:47:04;3.40;99.90
25877;DHT22;13692;47.480;19.216;2023-11-19T07:49:31;3.50;99.90
25877;DHT22;13692;47.480;19.216;2023-11-19T07:51:58;3.50;99.90
25877;DHT22;13692;47.480;19.216;2023-11-19T07:54:25;3.70;99.90
25877;DHT22;13692;47.480;19.216;2023-11-19T07:56:52;3.70;99.90
25877;DHT22;13692;47.480;19.216;2023-11-19T07:59:19;3.70;99.90
25877;DHT22;13692;47.480;19.216;2023-11-19T08:01:46;3.50;99.90
25877;DHT22;13692;47.480;19.216;2023-11-19T08:04:13;3.50;99.90
25877;DHT22;13692;47.480;19.216;2023-11-19T08:06:40;3.50;99.90
25877;DHT22;13692;47.480;19.216;2023-11-19T08:09:07;3.40;99.90
25877;DHT22;13692;47.480;19.216;2023-11-19T08:11:42;3.30;99.90
25877;DHT22;13692;47.480;19.216;2023-11-19T08:14:09;3.30;99.90
25877;DHT22;13692;47.480;19.216;2023-11-19T08:16:36;3.30;99.90
25877;DHT22;13692;47.480;19.216;2023-11-19T08:19:04;3.40;99.90
25877;DHT22;13692;47.480;19.216;2023-11-19T08:21:31;3.50;99.90
25877;DHT22;13692;47.480;19.216;2023-11-19T08:23:59;3.60;99.90
25877;DHT22;13692;47.480;19.216;2023-11-19T08:26:25;3.70;99.90
25877;DHT22;13692;47.480;19.216;2023-11-19T08:28:52;3.60;99.90
25877;DHT22;13692;47.480;19.216;2023-11-19T08:31:19;3.60;99.90
25877;DHT22;13692;47.480;19.216;2023-11-19T08:33:46;3.60;99.90
25877;DHT22;13692;47.480;19.216;2023-11-19T08:36:17;3.70;99.90
25877;DHT22;13692;47.480;19.216;2023-11-19T08:38:44;3.70;99.90
25877;DHT22;13692;47.480;19.216;2023-11-19T08:41:11;3.70;99.90
25877;DHT22;13692;47.480;19.216;2023-11-19T08:43:38;3.80;99.90
25877;DHT22;13692;47.480;19.216;2023-11-19T08:46:14;3.90;99.90
25877;DHT22;13692;47.480;19.216;2023-11-19T08:48:42;3.90;99.90
25877;DHT22;13692;47.480;19.216;2023-11-19T08:51:08;3.80;99.90
25877;DHT22;13692;47.480;19.216;2023-11-19T08:53:35;3.80;99.90
25877;DHT22;13692;47.480;19.216;2023-11-19T08:56:03;3.80;99.90
25877;DHT22;13692;47.480;19.216;2023-11-19T08:58:30;3.90;99.90
25877;DHT22;13692;47.480;19.216;2023-11-19T09:00:58;4.00;99.90
25877;DHT22;13692;47.480;19.216;2023-11-19T09:03:25;4.00;99.90
25877;DHT22;13692;47.480;19.216;2023-11-19T09:05:57;4.10;99.90
25877;DHT22;13692;47.480;19.216;2023-11-19T09:08:24;4.10;99.90
25877;DHT22;13692;47.480;19.216;2023-11-19T09:10:51;4.20;99.90
25877;DHT22;13692;47.480;19.216;2023-11-19T09:13:18;4.30;99.90
25877;DHT22;13692;47.480;19.216;2023-11-19T09:15:45;4.30;99.90
25877;DHT22;13692;47.480;19.216;2023-11-19T09:18:12;4.40;99.90
25877;DHT22;13692;47.480;19.216;2023-11-19T09:20:39;4.30;99.90
25877;DHT22;13692;47.480;19.216;2023-11-19T09:23:06;4.30;99.90
25877;DHT22;13692;47.480;19.216;2023-11-19T09:25:34;4.30;99.90
25877;DHT22;13692;47.480;19.216;2023-11-19T09:28:04;4.40;99.90
25877;DHT22;13692;47.480;19.216;2023-11-19T09:30:31;4.40;99.90
25877;DHT22;13692;47.480;19.216;2023-11-19T09:33:01;4.40;99.90
25877;DHT22;13692;47.480;19.216;2023-11-19T09:35:28;4.40;99.90
25877;DHT22;13692;47.480;19.216;2023-11-19T09:37:55;4.30;99.90
25877;DHT22;13692;47.480;19.216;2023-11-19T09:40:22;4.40;99.90
25877;DHT22;13692;47.480;19.216;2023-11-19T09:42:49;4.40;99.90
25877;DHT22;13692;47.480;19.216;2023-11-19T09:45:17;4.40;99.90
25877;DHT22;13692;47.480;19.216;2023-11-19T09:47:47;4.40;99.90
25877;DHT22;13692;47.480;19.216;2023-11-19T09:50:16;4.50;99.90
25877;DHT22;13692;47.480;19.216;2023-11-19T09:52:46;4.50;99.90
25877;DHT22;13692;47.480;19.216;2023-11-19T09:55:14;4.50;99.90
25877;DHT22;13692;47.480;19.216;2023-11-19T09:57:42;4.50;99.90
25877;DHT22;13692;47.480;19.216;2023-11-19T10:00:11;4.50;99.90
25877;DHT22;13692;47.480;19.216;2023-11-19T10:02:43;4.50;99.90
25877;DHT22;13692;47.480;19.216;2023-11-19T10:05:14;4.50;99.90
25877;DHT22;13692;47.480;19.216;2023-11-19T10:07:42;4.50;99.90
25877;DHT22;13692;47.480;19.216;2023-11-19T10:10:09;4.40;99.90
25877;DHT22;13692;47.480;19.216;2023-11-19T10:12:40;4.40;99.90
25877;DHT22;13692;47.480;19.216;2023-11-19T10:15:24;4.40;99.90
25877;DHT22;13692;47.480;19.216;2023-11-19T10:17:57;4.50;99.90
25877;DHT22;13692;47.480;19.216;2023-11-19T10:20:25;4.50;99.90
25877;DHT22;13692;47.480;19.216;2023-11-19T10:22:53;4.60;99.90
25877;DHT22;13692;47.480;19.216;2023-11-19T10:25:25;4.70;99.90
25877;DHT22;13692;47.480;19.216;2023-11-19T10:27:53;4.80;99.90
25877;DHT22;13692;47.480;19.216;2023-11-19T10:30:22;4.70;99.90
25877;DHT22;13692;47.480;19.216;2023-11-19T10:35:33;4.70;99.90
25877;DHT22;13692;47.480;19.216;2023-11-19T10:38:23;4.70;99.90
25877;DHT22;13692;47.480;19.216;2023-11-19T10:40:49;4.70;99.90
25877;DHT22;13692;47.480;19.216;2023-11-19T10:43:20;4.70;99.90
25877;DHT22;13692;47.480;19.216;2023-11-19T10:45:49;4.80;99.90
25877;DHT22;13692;47.480;19.216;2023-11-19T10:48:16;4.80;99.90
25877;DHT22;13692;47.480;19.216;2023-11-19T10:50:45;4.90;99.90
25877;DHT22;13692;47.480;19.216;2023-11-19T10:53:12;4.80;99.90
25877;DHT22;13692;47.480;19.216;2023-11-19T10:55:40;4.70;99.90
25877;DHT22;13692;47.480;19.216;2023-11-19T10:58:08;4.80;99.90
25877;DHT22;13692;47.480;19.216;2023-11-19T11:00:51;4.80;99.90
25877;DHT22;13692;47.480;19.216;2023-11-19T11:03:20;4.80;99.90
25877;DHT22;13692;47.480;19.216;2023-11-19T11:05:49;4.80;99.90
25877;DHT22;13692;47.480;19.216;2023-11-19T11:08:18;4.80;99.90
25877;DHT22;13692;47.480;19.216;2023-11-19T11:10:55;4.80;99.90
25877;DHT22;13692;47.480;19.216;2023-11-19T11:13:25;4.80;99.90
25877;DHT22;13692;47.480;19.216;2023-11-19T11:15:55;4.90;99.90
25877;DHT22;13692;47.480;19.216;2023-11-19T11:18:25;4.90;99.90
25877;DHT22;13692;47.480;19.216;2023-11-19T11:21:06;4.90;99.90
25877;DHT22;13692;47.480;19.216;2023-11-19T11:23:47;4.90;99.90
25877;DHT22;13692;47.480;19.216;2023-11-19T11:26:35;4.80;99.90
25877;DHT22;13692;47.480;19.216;2023-11-19T11:29:51;4.90;99.90
25877;DHT22;13692;47.480;19.216;2023-11-19T11:32:25;4.80;99.90
25877;DHT22;13692;47.480;19.216;2023-11-19T11:35:47;4.70;99.90
25877;DHT22;13692;47.480;19.216;2023-11-19T11:38:07;4.70;99.90
25877;DHT22;13692;47.480;19.216;2023-11-19T11:40:35;4.70;99.90
25877;DHT22;13692;47.480;19.216;2023-11-19T11:43:03;4.70;99.90
25877;DHT22;13692;47.480;19.216;2023-11-19T11:45:39;4.80;99.90
25877;DHT22;13692;47.480;19.216;2023-11-19T11:48:11;4.80;99.90
25877;DHT22;13692;47.480;19.216;2023-11-19T11:50:50;4.80;99.90
25877;DHT22;13692;47.480;19.216;2023-11-19T11:53:18;4.80;99.90
25877;DHT22;13692;47.480;19.216;2023-11-19T11:58:19;5.00;99.90
25877;DHT22;13692;47.480;19.216;2023-11-19T12:00:48;5.00;99.90
25877;DHT22;13692;47.480;19.216;2023-11-19T12:03:20;4.90;99.90
25877;DHT22;13692;47.480;19.216;2023-11-19T12:05:50;5.00;99.90
25877;DHT22;13692;47.480;19.216;2023-11-19T12:08:25;5.10;99.90
25877;DHT22;13692;47.480;19.216;2023-11-19T12:10:54;5.20;99.90
25877;DHT22;13692;47.480;19.216;2023-11-19T12:13:42;5.30;99.90
25877;DHT22;13692;47.480;19.216;2023-11-19T12:16:11;5.20;99.90
25877;DHT22;13692;47.480;19.216;2023-11-19T12:18:39;5.20;99.90
25877;DHT22;13692;47.480;19.216;2023-11-19T12:21:07;5.20;99.90
25877;DHT22;13692;47.480;19.216;2023-11-19T12:23:45;5.20;99.90
25877;DHT22;13692;47.480;19.216;2023-11-19T12:26:42;5.20;99.90
25877;DHT22;13692;47.480;19.216;2023-11-19T12:29:09;5.20;99.90
25877;DHT22;13692;47.480;19.216;2023-11-19T12:31:36;5.30;99.90
25877;DHT22;13692;47.480;19.216;2023-11-19T12:34:08;5.40;99.90
25877;DHT22;13692;47.480;19.216;2023-11-19T12:36:40;5.40;99.90
25877;DHT22;13692;47.480;19.216;2023-11-19T12:39:08;5.40;99.90
25877;DHT22;13692;47.480;19.216;2023-11-19T12:41:49;5.40;99.90
25877;DHT22;13692;47.480;19.216;2023-11-19T12:44:16;5.40;99.90
25877;DHT22;13692;47.480;19.216;2023-11-19T12:46:44;5.50;99.90
25877;DHT22;13692;47.480;19.216;2023-11-19T12:49:11;5.50;99.90
25877;DHT22;13692;47.480;19.216;2023-11-19T12:51:38;5.50;99.90
25877;DHT22;13692;47.480;19.216;2023-11-19T12:54:06;5.50;99.90
25877;DHT22;13692;47.480;19.216;2023-11-19T12:56:33;5.60;99.90
25877;DHT22;13692;47.480;19.216;2023-11-19T12:59:10;5.50;99.90
25877;DHT22;13692;47.480;19.216;2023-11-19T13:01:38;5.50;99.90
25877;DHT22;13692;47.480;19.216;2023-11-19T13:04:19;5.40;99.90
25877;DHT22;13692;47.480;19.216;2023-11-19T13:06:46;5.40;99.90
25877;DHT22;13692;47.480;19.216;2023-11-19T13:09:31;5.30;99.90
25877;DHT22;13692;47.480;19.216;2023-11-19T13:11:58;5.50;99.90
25877;DHT22;13692;47.480;19.216;2023-11-19T13:14:36;5.50;99.90
25877;DHT22;13692;47.480;19.216;2023-11-19T13:17:05;5.60;99.90
25877;DHT22;13692;47.480;19.216;2023-11-19T13:19:32;5.70;99.90
25877;DHT22;13692;47.480;19.216;2023-11-19T13:22:00;5.60;99.90
25877;DHT22;13692;47.480;19.216;2023-11-19T13:24:27;5.60;99.90
25877;DHT22;13692;47.480;19.216;2023-11-19T13:26:55;5.70;99.90
25877;DHT22;13692;47.480;19.216;2023-11-19T13:29:22;5.70;99.90
25877;DHT22;13692;47.480;19.216;2023-11-19T13:31:50;5.80;99.90
25877;DHT22;13692;47.480;19.216;2023-11-19T13:34:17;5.80;99.90
25877;DHT22;13692;47.480;19.216;2023-11-19T13:36:44;5.80;99.90
25877;DHT22;13692;47.480;19.216;2023-11-19T13:39:11;5.80;99.90
25877;DHT22;13692;47.480;19.216;2023-11-19T13:41:39;5.80;99.90
25877;DHT22;13692;47.480;19.216;2023-11-19T13:44:07;5.80;99.90
25877;DHT22;13692;47.480;19.216;2023-11-19T13:46:34;5.80;99.90
25877;DHT22;13692;47.480;19.216;2023-11-19T13:49:01;5.90;99.90
25877;DHT22;13692;47.480;19.216;2023-11-19T13:51:29;5.90;99.90
25877;DHT22;13692;47.480;19.216;2023-11-19T13:53:57;6.00;99.90
25877;DHT22;13692;47.480;19.216;2023-11-19T13:56:24;6.00;99.90
25877;DHT22;13692;47.480;19.216;2023-11-19T13:58:51;6.10;99.90
25877;DHT22;13692;47.480;19.216;2023-11-19T14:01:20;6.10;99.90
25877;DHT22;13692;47.480;19.216;2023-11-19T14:03:50;6.10;99.90
25877;DHT22;13692;47.480;19.216;2023-11-19T14:06:17;6.10;99.90
25877;DHT22;13692;47.480;19.216;2023-11-19T14:08:45;6.10;99.90
25877;DHT22;13692;47.480;19.216;2023-11-19T14:11:12;6.10;99.90
25877;DHT22;13692;47.480;19.216;2023-11-19T14:13:39;6.10;99.90
25877;DHT22;13692;47.480;19.216;2023-11-19T14:16:06;6.10;99.90
25877;DHT22;13692;47.480;19.216;2023-11-19T14:18:35;6.10;99.90
25877;DHT22;13692;47.480;19.216;2023-11-19T14:21:03;6.20;99.90
25877;DHT22;13692;47.480;19.216;2023-11-19T14:23:30;6.20;99.90
25877;DHT22;13692;47.480;19.216;2023-11-19T14:25:58;6.20;99.90
25877;DHT22;13692;47.480;19.216;2023-11-19T14:28:25;6.20;99.90
25877;DHT22;13692;47.480;19.216;2023-11-19T14:30:53;6.30;99.90
25877;DHT22;13692;47.480;19.216;2023-11-19T14:33:23;6.30;99.90
25877;DHT22;13692;47.480;19.216;2023-11-19T14:35:50;6.20;99.90
25877;DHT22;13692;47.480;19.216;2023-11-19T14:38:18;6.20;99.90
25877;DHT22;13692;47.480;19.216;2023-11-19T14:40:46;6.20;99.90
25877;DHT22;13692;47.480;19.216;2023-11-19T14:43:13;6.20;99.90
25877;DHT22;13692;47.480;19.216;2023-11-19T14:45:42;6.20;99.90
25877;DHT22;13692;47.480;19.216;2023-11-19T14:48:16;6.20;99.90
25877;DHT22;13692;47.480;19.216;2023-11-19T14:50:45;6.20;99.90
25877;DHT22;13692;47.480;19.216;2023-11-19T14:53:12;6.20;99.90
25877;DHT22;13692;47.480;19.216;2023-11-19T14:55:39;6.20;99.90
25877;DHT22;13692;47.480;19.216;2023-11-19T14:58:06;6.20;99.90
25877;DHT22;13692;47.480;19.216;2023-11-19T15:00:37;6.20;99.90
25877;DHT22;13692;47.480;19.216;2023-11-19T15:03:04;6.20;99.90
25877;DHT22;13692;47.480;19.216;2023-11-19T15:05:34;6.20;99.90
25877;DHT22;13692;47.480;19.216;2023-11-19T15:08:02;6.30;99.90
25877;DHT22;13692;47.480;19.216;2023-11-19T15:10:30;6.30;99.90
25877;DHT22;13692;47.480;19.216;2023-11-19T15:12:57;6.30;99.90
25877;DHT22;13692;47.480;19.216;2023-11-19T15:15:25;6.40;99.90
25877;DHT22;13692;47.480;19.216;2023-11-19T15:17:55;6.30;99.90
25877;DHT22;13692;47.480;19.216;2023-11-19T15:20:22;6.30;99.90
25877;DHT22;13692;47.480;19.216;2023-11-19T15:22:51;6.30;99.90
25877;DHT22;13692;47.480;19.216;2023-11-19T15:25:18;6.30;99.90
25877;DHT22;13692;47.480;19.216;2023-11-19T15:27:45;6.20;99.90
25877;DHT22;13692;47.480;19.216;2023-11-19T15:30:12;6.20;99.90
25877;DHT22;13692;47.480;19.216;2023-11-19T15:32:40;6.20;99.90
25877;DHT22;13692;47.480;19.216;2023-11-19T15:35:09;6.20;99.90
25877;DHT22;13692;47.480;19.216;2023-11-19T15:37:40;6.20;99.90
25877;DHT22;13692;47.480;19.216;2023-11-19T15:40:10;6.20;99.90
25877;DHT22;13692;47.480;19.216;2023-11-19T15:42:41;6.20;99.90
25877;DHT22;13692;47.480;19.216;2023-11-19T15:45:09;6.20;99.90